sensor_id;sensor_type;location;lat;lon;timestamp;temperature;humidity
16517;DHT22;8371;52.272;9.746;2023-04-16T00:00:38;12.10;78.40
16517;DHT22;8371;52.272;9.746;2023-04-16T00:03:04;12.10;78.50
16517;DHT22;8371;52.272;9.746;2023-04-16T00:05:30;12.10;78.60
16517;DHT22;8371;52.272;9.746;2023-04-16T00:07:55;12.10;78.60
16517;DHT22;8371;52.272;9.746;2023-04-16T00:10:21;12.10;78.50
16517;DHT22;8371;52.272;9.746;2023-04-16T00:12:47;12.10;78.60
16517;DHT22;8371;52.272;9.746;2023-04-16T00:15:13;12.10;78.60
16517;DHT22;8371;52.272;9.746;2023-04-16T00:17:38;12.10;78.60
16517;DHT22;8371;52.272;9.746;2023-04-16T00:20:05;12.10;78.70
16517;DHT22;8371;52.272;9.746;2023-04-16T00:22:31;12.10;78.60
16517;DHT22;8371;52.272;9.746;2023-04-16T00:24:56;12.10;78.70
16517;DHT22;8371;52.272;9.746;2023-04-16T00:27:22;12.10;78.80
16517;DHT22;8371;52.272;9.746;2023-04-16T00:29:47;12.10;78.60
16517;DHT22;8371;52.272;9.746;2023-04-16T00:32:13;12.10;78.60
16517;DHT22;8371;52.272;9.746;2023-04-16T00:34:39;12.00;78.50
16517;DHT22;8371;52.272;9.746;2023-04-16T00:37:04;12.10;78.50
16517;DHT22;8371;52.272;9.746;2023-04-16T00:39:30;12.10;78.70
16517;DHT22;8371;52.272;9.746;2023-04-16T00:41:56;12.00;78.70
16517;DHT22;8371;52.272;9.746;2023-04-16T00:44:21;12.00;78.90
16517;DHT22;8371;52.272;9.746;2023-04-16T00:46:47;12.00;79.00
16517;DHT22;8371;52.272;9.746;2023-04-16T00:49:13;12.00;79.00
16517;DHT22;8371;52.272;9.746;2023-04-16T00:51:39;12.00;79.10
16517;DHT22;8371;52.272;9.746;2023-04-16T00:54:05;12.00;79.00
16517;DHT22;8371;52.272;9.746;2023-04-16T00:56:32;12.00;79.10
16517;DHT22;8371;52.272;9.746;2023-04-16T00:58:58;12.00;79.20
16517;DHT22;8371;52.272;9.746;2023-04-16T01:01:23;11.90;79.20
16517;DHT22;8371;52.272;9.746;2023-04-16T01:03:49;11.90;79.30
16517;DHT22;8371;52.272;9.746;2023-04-16T01:06:16;11.90;79.10
16517;DHT22;8371;52.272;9.746;2023-04-16T01:08:43;11.90;79.20
16517;DHT22;8371;52.272;9.746;2023-04-16T01:11:09;11.90;78.90
16517;DHT22;8371;52.272;9.746;2023-04-16T01:13:36;11.90;79.00
16517;DHT22;8371;52.272;9.746;2023-04-16T01:16:05;11.90;79.00
16517;DHT22;8371;52.272;9.746;2023-04-16T01:18:32;11.90;79.20
16517;DHT22;8371;52.272;9.746;2023-04-16T01:20:58;11.90;79.20
16517;DHT22;8371;52.272;9.746;2023-04-16T01:23:24;11.80;79.10
16517;DHT22;8371;52.272;9.746;2023-04-16T01:25:49;11.80;79.30
16517;DHT22;8371;52.272;9.746;2023-04-16T01:28:15;11.80;79.20
16517;DHT22;8371;52.272;9.746;2023-04-16T01:30:41;11.80;79.40
16517;DHT22;8371;52.272;9.746;2023-04-16T01:33:09;11.80;79.30
16517;DHT22;8371;52.272;9.746;2023-04-16T01:35:35;11.80;79.10
16517;DHT22;8371;52.272;9.746;2023-04-16T01:38:02;11.80;79.30
16517;DHT22;8371;52.272;9.746;2023-04-16T01:40:27;11.80;79.20
16517;DHT22;8371;52.272;9.746;2023-04-16T01:42:53;11.80;79.30
16517;DHT22;8371;52.272;9.746;2023-04-16T01:45:19;11.80;79.20
16517;DHT22;8371;52.272;9.746;2023-04-16T01:47:45;11.80;79.30
16517;DHT22;8371;52.272;9.746;2023-04-16T01:50:11;11.70;79.30
16517;DHT22;8371;52.272;9.746;2023-04-16T01:52:37;11.70;79.10
16517;DHT22;8371;52.272;9.746;2023-04-16T01:55:02;11.70;79.20
16517;DHT22;8371;52.272;9.746;2023-04-16T01:57:28;11.70;79.30
16517;DHT22;8371;52.272;9.746;2023-04-16T01:59:54;11.70;79.20
16517;DHT22;8371;52.272;9.746;2023-04-16T02:02:19;11.60;79.30
16517;DHT22;8371;52.272;9.746;2023-04-16T02:04:47;11.60;80.00
16517;DHT22;8371;52.272;9.746;2023-04-16T02:07:13;11.60;79.20
16517;DHT22;8371;52.272;9.746;2023-04-16T02:09:39;11.60;79.10
16517;DHT22;8371;52.272;9.746;2023-04-16T02:12:06;11.50;79.00
16517;DHT22;8371;52.272;9.746;2023-04-16T02:14:32;11.50;78.90
16517;DHT22;8371;52.272;9.746;2023-04-16T02:16:58;11.50;79.10
16517;DHT22;8371;52.272;9.746;2023-04-16T02:19:24;11.40;79.00
16517;DHT22;8371;52.272;9.746;2023-04-16T02:21:50;11.40;79.30
16517;DHT22;8371;52.272;9.746;2023-04-16T02:24:17;11.40;79.50
16517;DHT22;8371;52.272;9.746;2023-04-16T02:26:42;11.30;79.40
16517;DHT22;8371;52.272;9.746;2023-04-16T02:29:09;11.30;79.60
16517;DHT22;8371;52.272;9.746;2023-04-16T02:31:35;11.30;79.50
16517;DHT22;8371;52.272;9.746;2023-04-16T02:34:01;11.30;79.40
16517;DHT22;8371;52.272;9.746;2023-04-16T02:36:27;11.20;79.30
16517;DHT22;8371;52.272;9.746;2023-04-16T02:38:53;11.30;79.40
16517;DHT22;8371;52.272;9.746;2023-04-16T02:41:19;11.20;79.40
16517;DHT22;8371;52.272;9.746;2023-04-16T02:43:44;11.20;79.60
16517;DHT22;8371;52.272;9.746;2023-04-16T02:46:10;11.20;79.50
16517;DHT22;8371;52.272;9.746;2023-04-16T02:48:36;11.20;79.80
16517;DHT22;8371;52.272;9.746;2023-04-16T02:51:01;11.20;79.80
16517;DHT22;8371;52.272;9.746;2023-04-16T02:53:27;11.10;79.70
16517;DHT22;8371;52.272;9.746;2023-04-16T02:55:54;11.10;79.70
16517;DHT22;8371;52.272;9.746;2023-04-16T02:58:20;11.10;79.80
16517;DHT22;8371;52.272;9.746;2023-04-16T03:00:46;11.10;79.80
16517;DHT22;8371;52.272;9.746;2023-04-16T03:03:12;11.10;79.90
16517;DHT22;8371;52.272;9.746;2023-04-16T03:05:38;11.10;79.90
16517;DHT22;8371;52.272;9.746;2023-04-16T03:08:04;11.00;79.50
16517;DHT22;8371;52.272;9.746;2023-04-16T03:10:30;11.00;79.50
16517;DHT22;8371;52.272;9.746;2023-04-16T03:12:56;11.00;79.40
16517;DHT22;8371;52.272;9.746;2023-04-16T03:15:21;11.00;79.90
16517;DHT22;8371;52.272;9.746;2023-04-16T03:17:47;11.00;79.80
16517;DHT22;8371;52.272;9.746;2023-04-16T03:20:13;11.00;80.00
16517;DHT22;8371;52.272;9.746;2023-04-16T03:22:42;10.90;80.00
16517;DHT22;8371;52.272;9.746;2023-04-16T03:25:08;10.90;80.00
16517;DHT22;8371;52.272;9.746;2023-04-16T03:27:34;10.90;79.90
16517;DHT22;8371;52.272;9.746;2023-04-16T03:30:01;10.90;79.90
16517;DHT22;8371;52.272;9.746;2023-04-16T03:32:27;10.80;80.00
16517;DHT22;8371;52.272;9.746;2023-04-16T03:34:53;10.80;79.70
16517;DHT22;8371;52.272;9.746;2023-04-16T03:37:18;10.80;79.70
16517;DHT22;8371;52.272;9.746;2023-04-16T03:39:44;10.80;79.70
16517;DHT22;8371;52.272;9.746;2023-04-16T03:42:10;10.70;79.70
16517;DHT22;8371;52.272;9.746;2023-04-16T03:44:36;10.70;79.70
16517;DHT22;8371;52.272;9.746;2023-04-16T03:47:01;10.60;79.70
16517;DHT22;8371;52.272;9.746;2023-04-16T03:49:27;10.60;79.70
16517;DHT22;8371;52.272;9.746;2023-04-16T03:51:52;10.60;80.10
16517;DHT22;8371;52.272;9.746;2023-04-16T03:54:18;10.60;80.10
16517;DHT22;8371;52.272;9.746;2023-04-16T03:56:44;10.50;80.10
16517;DHT22;8371;52.272;9.746;2023-04-16T03:59:09;10.60;80.20
16517;DHT22;8371;52.272;9.746;2023-04-16T04:01:35;10.50;80.10
16517;DHT22;8371;52.272;9.746;2023-04-16T04:04:01;10.50;80.20
16517;DHT22;8371;52.272;9.746;2023-04-16T04:06:26;10.50;80.20
16517;DHT22;8371;52.272;9.746;2023-04-16T04:08:52;10.50;80.40
16517;DHT22;8371;52.272;9.746;2023-04-16T04:11:18;10.40;80.40
16517;DHT22;8371;52.272;9.746;2023-04-16T04:13:44;10.50;80.40
16517;DHT22;8371;52.272;9.746;2023-04-16T04:16:10;10.40;80.50
16517;DHT22;8371;52.272;9.746;2023-04-16T04:18:36;10.40;80.50
16517;DHT22;8371;52.272;9.746;2023-04-16T04:21:05;10.40;80.50
16517;DHT22;8371;52.272;9.746;2023-04-16T04:23:31;10.40;80.60
16517;DHT22;8371;52.272;9.746;2023-04-16T04:25:57;10.40;80.70
16517;DHT22;8371;52.272;9.746;2023-04-16T04:28:23;10.40;81.00
16517;DHT22;8371;52.272;9.746;2023-04-16T04:30:49;10.40;81.00
16517;DHT22;8371;52.272;9.746;2023-04-16T04:33:15;10.40;80.80
16517;DHT22;8371;52.272;9.746;2023-04-16T04:35:40;10.40;81.50
16517;DHT22;8371;52.272;9.746;2023-04-16T04:38:06;10.40;80.80
16517;DHT22;8371;52.272;9.746;2023-04-16T04:40:32;10.40;81.60
16517;DHT22;8371;52.272;9.746;2023-04-16T04:42:57;10.40;80.90
16517;DHT22;8371;52.272;9.746;2023-04-16T04:45:23;10.40;80.90
16517;DHT22;8371;52.272;9.746;2023-04-16T04:47:52;10.40;80.90
16517;DHT22;8371;52.272;9.746;2023-04-16T04:50:17;10.40;80.70
16517;DHT22;8371;52.272;9.746;2023-04-16T04:52:43;10.40;80.70
16517;DHT22;8371;52.272;9.746;2023-04-16T04:55:09;10.40;80.60
16517;DHT22;8371;52.272;9.746;2023-04-16T04:57:34;10.40;80.60
16517;DHT22;8371;52.272;9.746;2023-04-16T05:00:00;10.40;80.70
16517;DHT22;8371;52.272;9.746;2023-04-16T05:02:28;10.40;80.60
16517;DHT22;8371;52.272;9.746;2023-04-16T05:04:53;10.40;80.60
16517;DHT22;8371;52.272;9.746;2023-04-16T05:07:20;10.50;81.40
16517;DHT22;8371;52.272;9.746;2023-04-16T05:09:46;10.50;80.70
16517;DHT22;8371;52.272;9.746;2023-04-16T05:12:12;10.40;80.60
16517;DHT22;8371;52.272;9.746;2023-04-16T05:14:37;10.50;80.70
16517;DHT22;8371;52.272;9.746;2023-04-16T05:17:03;10.50;80.60
16517;DHT22;8371;52.272;9.746;2023-04-16T05:19:29;10.50;80.80
16517;DHT22;8371;52.272;9.746;2023-04-16T05:21:54;10.50;80.70
16517;DHT22;8371;52.272;9.746;2023-04-16T05:24:21;10.50;80.60
16517;DHT22;8371;52.272;9.746;2023-04-16T05:26:46;10.50;80.80
16517;DHT22;8371;52.272;9.746;2023-04-16T05:29:12;10.50;80.80
16517;DHT22;8371;52.272;9.746;2023-04-16T05:31:38;10.50;80.90
16517;DHT22;8371;52.272;9.746;2023-04-16T05:34:03;10.50;81.00
16517;DHT22;8371;52.272;9.746;2023-04-16T05:36:29;10.50;80.80
16517;DHT22;8371;52.272;9.746;2023-04-16T05:38:55;10.50;80.90
16517;DHT22;8371;52.272;9.746;2023-04-16T05:41:20;10.60;81.00
16517;DHT22;8371;52.272;9.746;2023-04-16T05:43:46;10.50;81.20
16517;DHT22;8371;52.272;9.746;2023-04-16T05:46:12;10.60;81.10
16517;DHT22;8371;52.272;9.746;2023-04-16T05:48:37;10.60;81.20
16517;DHT22;8371;52.272;9.746;2023-04-16T05:51:03;10.60;81.20
16517;DHT22;8371;52.272;9.746;2023-04-16T05:53:29;10.70;81.00
16517;DHT22;8371;52.272;9.746;2023-04-16T05:55:55;10.70;81.00
16517;DHT22;8371;52.272;9.746;2023-04-16T05:58:21;10.70;80.90
16517;DHT22;8371;52.272;9.746;2023-04-16T06:00:46;10.70;80.90
16517;DHT22;8371;52.272;9.746;2023-04-16T06:03:12;10.80;80.90
16517;DHT22;8371;52.272;9.746;2023-04-16T06:05:38;10.70;81.10
16517;DHT22;8371;52.272;9.746;2023-04-16T06:08:03;10.80;81.20
16517;DHT22;8371;52.272;9.746;2023-04-16T06:10:29;10.80;81.10
16517;DHT22;8371;52.272;9.746;2023-04-16T06:12:55;10.80;81.10
16517;DHT22;8371;52.272;9.746;2023-04-16T06:15:20;10.80;80.90
16517;DHT22;8371;52.272;9.746;2023-04-16T06:17:46;10.90;80.90
16517;DHT22;8371;52.272;9.746;2023-04-16T06:20:12;10.90;80.90
16517;DHT22;8371;52.272;9.746;2023-04-16T06:22:37;10.90;80.80
16517;DHT22;8371;52.272;9.746;2023-04-16T06:25:04;10.80;80.80
16517;DHT22;8371;52.272;9.746;2023-04-16T06:27:30;10.90;80.90
16517;DHT22;8371;52.272;9.746;2023-04-16T06:29:56;10.90;80.90
16517;DHT22;8371;52.272;9.746;2023-04-16T06:32:22;11.00;80.90
16517;DHT22;8371;52.272;9.746;2023-04-16T06:34:48;11.00;80.80
16517;DHT22;8371;52.272;9.746;2023-04-16T06:37:14;11.00;81.00
16517;DHT22;8371;52.272;9.746;2023-04-16T06:39:40;11.00;81.00
16517;DHT22;8371;52.272;9.746;2023-04-16T06:42:06;11.00;80.80
16517;DHT22;8371;52.272;9.746;2023-04-16T06:44:31;11.00;80.90
16517;DHT22;8371;52.272;9.746;2023-04-16T06:46:57;11.00;80.80
16517;DHT22;8371;52.272;9.746;2023-04-16T06:49:23;11.00;80.80
16517;DHT22;8371;52.272;9.746;2023-04-16T06:51:49;11.10;80.80
16517;DHT22;8371;52.272;9.746;2023-04-16T06:54:14;11.10;80.80
16517;DHT22;8371;52.272;9.746;2023-04-16T06:56:41;11.10;80.80
16517;DHT22;8371;52.272;9.746;2023-04-16T06:59:06;11.10;80.90
16517;DHT22;8371;52.272;9.746;2023-04-16T07:01:32;11.20;81.10
16517;DHT22;8371;52.272;9.746;2023-04-16T07:03:58;11.20;81.10
16517;DHT22;8371;52.272;9.746;2023-04-16T07:06:24;11.20;81.10
16517;DHT22;8371;52.272;9.746;2023-04-16T07:08:51;11.20;81.00
16517;DHT22;8371;52.272;9.746;2023-04-16T07:11:17;11.30;81.00
16517;DHT22;8371;52.272;9.746;2023-04-16T07:13:43;11.30;80.90
16517;DHT22;8371;52.272;9.746;2023-04-16T07:16:09;11.40;80.80
16517;DHT22;8371;52.272;9.746;2023-04-16T07:18:35;11.40;80.70
16517;DHT22;8371;52.272;9.746;2023-04-16T07:21:00;11.40;80.50
16517;DHT22;8371;52.272;9.746;2023-04-16T07:23:26;11.40;80.60
16517;DHT22;8371;52.272;9.746;2023-04-16T07:25:52;11.40;80.50
16517;DHT22;8371;52.272;9.746;2023-04-16T07:28:18;11.40;80.50
16517;DHT22;8371;52.272;9.746;2023-04-16T07:30:43;11.40;80.50
16517;DHT22;8371;52.272;9.746;2023-04-16T07:33:09;11.40;80.50
16517;DHT22;8371;52.272;9.746;2023-04-16T07:35:35;11.50;80.50
16517;DHT22;8371;52.272;9.746;2023-04-16T07:38:01;11.50;80.70
16517;DHT22;8371;52.272;9.746;2023-04-16T07:40:26;11.50;80.70
16517;DHT22;8371;52.272;9.746;2023-04-16T07:42:53;11.60;80.80
16517;DHT22;8371;52.272;9.746;2023-04-16T07:45:20;11.60;80.80
16517;DHT22;8371;52.272;9.746;2023-04-16T07:47:46;11.60;80.70
16517;DHT22;8371;52.272;9.746;2023-04-16T07:50:12;11.70;80.80
16517;DHT22;8371;52.272;9.746;2023-04-16T07:52:37;11.70;80.70
16517;DHT22;8371;52.272;9.746;2023-04-16T07:55:08;11.80;80.60
16517;DHT22;8371;52.272;9.746;2023-04-16T07:57:34;11.90;80.60
16517;DHT22;8371;52.272;9.746;2023-04-16T08:00:00;11.90;80.40
16517;DHT22;8371;52.272;9.746;2023-04-16T08:02:31;11.90;80.40
16517;DHT22;8371;52.272;9.746;2023-04-16T08:04:58;12.00;80.30
16517;DHT22;8371;52.272;9.746;2023-04-16T08:07:24;12.00;80.30
16517;DHT22;8371;52.272;9.746;2023-04-16T08:09:51;12.10;80.30
16517;DHT22;8371;52.272;9.746;2023-04-16T08:12:16;12.10;80.30
16517;DHT22;8371;52.272;9.746;2023-04-16T08:14:43;12.20;80.20
16517;DHT22;8371;52.272;9.746;2023-04-16T08:17:10;12.20;80.10
16517;DHT22;8371;52.272;9.746;2023-04-16T08:19:36;12.20;80.00
16517;DHT22;8371;52.272;9.746;2023-04-16T08:22:01;12.30;80.00
16517;DHT22;8371;52.272;9.746;2023-04-16T08:24:27;12.30;80.00
16517;DHT22;8371;52.272;9.746;2023-04-16T08:26:53;12.40;79.90
16517;DHT22;8371;52.272;9.746;2023-04-16T08:29:18;12.50;80.00
16517;DHT22;8371;52.272;9.746;2023-04-16T08:31:45;12.50;80.00
16517;DHT22;8371;52.272;9.746;2023-04-16T08:34:11;12.60;80.10
16517;DHT22;8371;52.272;9.746;2023-04-16T08:36:37;12.60;79.80
16517;DHT22;8371;52.272;9.746;2023-04-16T08:39:02;12.70;79.50
16517;DHT22;8371;52.272;9.746;2023-04-16T08:41:30;12.80;79.50
16517;DHT22;8371;52.272;9.746;2023-04-16T08:43:59;12.80;79.60
16517;DHT22;8371;52.272;9.746;2023-04-16T08:46:25;12.90;79.40
16517;DHT22;8371;52.272;9.746;2023-04-16T08:48:53;13.00;79.10
16517;DHT22;8371;52.272;9.746;2023-04-16T08:51:22;13.10;79.20
16517;DHT22;8371;52.272;9.746;2023-04-16T08:53:51;13.10;78.90
16517;DHT22;8371;52.272;9.746;2023-04-16T08:56:20;13.20;78.80
16517;DHT22;8371;52.272;9.746;2023-04-16T08:58:49;13.30;78.50
16517;DHT22;8371;52.272;9.746;2023-04-16T09:01:16;13.30;78.10
16517;DHT22;8371;52.272;9.746;2023-04-16T09:03:44;13.40;78.20
16517;DHT22;8371;52.272;9.746;2023-04-16T09:06:11;13.40;78.20
16517;DHT22;8371;52.272;9.746;2023-04-16T09:08:38;13.50;77.90
16517;DHT22;8371;52.272;9.746;2023-04-16T09:11:05;13.50;78.00
16517;DHT22;8371;52.272;9.746;2023-04-16T09:13:31;13.50;77.70
16517;DHT22;8371;52.272;9.746;2023-04-16T09:15:57;13.50;77.20
16517;DHT22;8371;52.272;9.746;2023-04-16T09:18:24;13.50;76.90
16517;DHT22;8371;52.272;9.746;2023-04-16T09:20:50;13.50;77.20
16517;DHT22;8371;52.272;9.746;2023-04-16T09:23:16;13.50;77.20
16517;DHT22;8371;52.272;9.746;2023-04-16T09:25:42;13.50;77.30
16517;DHT22;8371;52.272;9.746;2023-04-16T09:28:09;13.40;77.40
16517;DHT22;8371;52.272;9.746;2023-04-16T09:30:35;13.40;77.20
16517;DHT22;8371;52.272;9.746;2023-04-16T09:33:20;13.40;77.20
16517;DHT22;8371;52.272;9.746;2023-04-16T09:35:50;13.40;77.30
16517;DHT22;8371;52.272;9.746;2023-04-16T09:38:17;13.30;77.30
16517;DHT22;8371;52.272;9.746;2023-04-16T09:40:43;13.30;77.30
16517;DHT22;8371;52.272;9.746;2023-04-16T09:43:14;13.30;77.30
16517;DHT22;8371;52.272;9.746;2023-04-16T09:45:51;13.30;77.50
16517;DHT22;8371;52.272;9.746;2023-04-16T09:48:30;13.20;77.30
16517;DHT22;8371;52.272;9.746;2023-04-16T09:50:57;13.20;77.50
16517;DHT22;8371;52.272;9.746;2023-04-16T09:53:26;13.20;77.70
16517;DHT22;8371;52.272;9.746;2023-04-16T09:55:57;13.20;77.60
16517;DHT22;8371;52.272;9.746;2023-04-16T09:58:23;13.20;77.60
16517;DHT22;8371;52.272;9.746;2023-04-16T10:00:55;13.20;77.70
16517;DHT22;8371;52.272;9.746;2023-04-16T10:03:29;13.20;77.60
16517;DHT22;8371;52.272;9.746;2023-04-16T10:06:00;13.20;77.60
16517;DHT22;8371;52.272;9.746;2023-04-16T10:08:26;13.10;77.60
16517;DHT22;8371;52.272;9.746;2023-04-16T10:10:53;13.10;77.60
16517;DHT22;8371;52.272;9.746;2023-04-16T10:13:19;13.10;77.60
16517;DHT22;8371;52.272;9.746;2023-04-16T10:15:44;13.10;77.70
16517;DHT22;8371;52.272;9.746;2023-04-16T10:18:11;13.00;77.70
16517;DHT22;8371;52.272;9.746;2023-04-16T10:20:36;13.00;77.70
16517;DHT22;8371;52.272;9.746;2023-04-16T10:23:02;13.00;77.90
16517;DHT22;8371;52.272;9.746;2023-04-16T10:25:28;13.00;77.90
16517;DHT22;8371;52.272;9.746;2023-04-16T10:27:55;13.00;77.90
16517;DHT22;8371;52.272;9.746;2023-04-16T10:30:22;12.90;77.90
16517;DHT22;8371;52.272;9.746;2023-04-16T10:32:48;12.90;77.90
16517;DHT22;8371;52.272;9.746;2023-04-16T10:35:16;12.80;77.90
16517;DHT22;8371;52.272;9.746;2023-04-16T10:37:42;12.80;77.90
16517;DHT22;8371;52.272;9.746;2023-04-16T10:40:23;12.80;77.90
16517;DHT22;8371;52.272;9.746;2023-04-16T10:42:53;12.70;78.80
16517;DHT22;8371;52.272;9.746;2023-04-16T10:45:19;12.70;78.30
16517;DHT22;8371;52.272;9.746;2023-04-16T10:47:45;12.60;78.50
16517;DHT22;8371;52.272;9.746;2023-04-16T10:50:15;12.50;78.60
16517;DHT22;8371;52.272;9.746;2023-04-16T10:52:40;12.40;78.70
16517;DHT22;8371;52.272;9.746;2023-04-16T10:55:07;12.40;79.20
16517;DHT22;8371;52.272;9.746;2023-04-16T10:57:35;12.30;78.80
16517;DHT22;8371;52.272;9.746;2023-04-16T11:00:01;12.30;79.10
16517;DHT22;8371;52.272;9.746;2023-04-16T11:02:27;12.30;79.20
16517;DHT22;8371;52.272;9.746;2023-04-16T11:04:55;12.20;79.50
16517;DHT22;8371;52.272;9.746;2023-04-16T11:07:33;12.20;79.80
16517;DHT22;8371;52.272;9.746;2023-04-16T11:10:03;12.20;80.00
16517;DHT22;8371;52.272;9.746;2023-04-16T11:12:43;12.10;80.60
16517;DHT22;8371;52.272;9.746;2023-04-16T11:15:15;12.10;80.50
16517;DHT22;8371;52.272;9.746;2023-04-16T11:17:47;12.10;80.50
16517;DHT22;8371;52.272;9.746;2023-04-16T11:20:24;12.10;81.50
16517;DHT22;8371;52.272;9.746;2023-04-16T11:22:52;12.00;81.00
16517;DHT22;8371;52.272;9.746;2023-04-16T11:25:19;12.00;80.90
16517;DHT22;8371;52.272;9.746;2023-04-16T11:27:46;12.10;81.10
16517;DHT22;8371;52.272;9.746;2023-04-16T11:30:12;12.10;80.90
16517;DHT22;8371;52.272;9.746;2023-04-16T11:32:38;12.10;81.00
16517;DHT22;8371;52.272;9.746;2023-04-16T11:35:16;12.10;81.00
16517;DHT22;8371;52.272;9.746;2023-04-16T11:37:42;12.10;81.00
16517;DHT22;8371;52.272;9.746;2023-04-16T11:40:08;12.10;81.10
16517;DHT22;8371;52.272;9.746;2023-04-16T11:42:40;12.10;81.00
16517;DHT22;8371;52.272;9.746;2023-04-16T11:45:06;12.10;81.00
16517;DHT22;8371;52.272;9.746;2023-04-16T11:50:25;12.10;80.70
16517;DHT22;8371;52.272;9.746;2023-04-16T11:52:53;12.10;80.70
16517;DHT22;8371;52.272;9.746;2023-04-16T11:55:19;12.20;80.80
16517;DHT22;8371;52.272;9.746;2023-04-16T11:57:45;12.10;81.00
16517;DHT22;8371;52.272;9.746;2023-04-16T12:00:12;12.20;81.00
16517;DHT22;8371;52.272;9.746;2023-04-16T12:02:41;12.10;80.90
16517;DHT22;8371;52.272;9.746;2023-04-16T12:07:56;12.10;80.90
16517;DHT22;8371;52.272;9.746;2023-04-16T12:10:23;12.10;81.10
16517;DHT22;8371;52.272;9.746;2023-04-16T12:12:49;12.10;81.20
16517;DHT22;8371;52.272;9.746;2023-04-16T12:15:15;12.10;81.10
16517;DHT22;8371;52.272;9.746;2023-04-16T12:17:41;12.10;81.40
16517;DHT22;8371;52.272;9.746;2023-04-16T12:20:12;12.10;81.50
16517;DHT22;8371;52.272;9.746;2023-04-16T12:22:39;12.10;81.30
16517;DHT22;8371;52.272;9.746;2023-04-16T12:25:11;12.10;81.20
16517;DHT22;8371;52.272;9.746;2023-04-16T12:27:49;12.20;81.30
16517;DHT22;8371;52.272;9.746;2023-04-16T12:30:19;12.20;81.30
16517;DHT22;8371;52.272;9.746;2023-04-16T12:32:48;12.20;81.30
16517;DHT22;8371;52.272;9.746;2023-04-16T12:35:28;12.20;81.20
16517;DHT22;8371;52.272;9.746;2023-04-16T12:37:54;12.20;81.40
16517;DHT22;8371;52.272;9.746;2023-04-16T12:40:19;12.20;81.40
16517;DHT22;8371;52.272;9.746;2023-04-16T12:42:45;12.20;81.50
16517;DHT22;8371;52.272;9.746;2023-04-16T12:45:11;12.30;81.80
16517;DHT22;8371;52.272;9.746;2023-04-16T12:47:36;12.30;81.80
16517;DHT22;8371;52.272;9.746;2023-04-16T12:50:02;12.40;81.80
16517;DHT22;8371;52.272;9.746;2023-04-16T12:52:28;12.40;82.10
16517;DHT22;8371;52.272;9.746;2023-04-16T12:54:54;12.40;82.30
16517;DHT22;8371;52.272;9.746;2023-04-16T12:57:19;12.50;82.40
16517;DHT22;8371;52.272;9.746;2023-04-16T12:59:45;12.60;82.70
16517;DHT22;8371;52.272;9.746;2023-04-16T13:02:12;12.60;82.70
16517;DHT22;8371;52.272;9.746;2023-04-16T13:04:37;12.70;82.70
16517;DHT22;8371;52.272;9.746;2023-04-16T13:07:03;12.80;82.80
16517;DHT22;8371;52.272;9.746;2023-04-16T13:09:29;12.80;82.80
16517;DHT22;8371;52.272;9.746;2023-04-16T13:11:54;12.90;82.80
16517;DHT22;8371;52.272;9.746;2023-04-16T13:14:20;13.00;82.90
16517;DHT22;8371;52.272;9.746;2023-04-16T13:16:46;13.10;83.00
16517;DHT22;8371;52.272;9.746;2023-04-16T13:19:11;13.20;83.00
16517;DHT22;8371;52.272;9.746;2023-04-16T13:21:40;13.30;83.00
16517;DHT22;8371;52.272;9.746;2023-04-16T13:24:06;13.40;83.20
16517;DHT22;8371;52.272;9.746;2023-04-16T13:26:31;13.50;83.30
16517;DHT22;8371;52.272;9.746;2023-04-16T13:28:57;13.60;83.50
16517;DHT22;8371;52.272;9.746;2023-04-16T13:31:24;13.80;83.60
16517;DHT22;8371;52.272;9.746;2023-04-16T13:33:50;13.90;83.50
16517;DHT22;8371;52.272;9.746;2023-04-16T13:36:16;14.10;83.50
16517;DHT22;8371;52.272;9.746;2023-04-16T13:38:41;14.20;83.50
16517;DHT22;8371;52.272;9.746;2023-04-16T13:41:07;14.40;83.60
16517;DHT22;8371;52.272;9.746;2023-04-16T13:43:33;14.50;83.50
16517;DHT22;8371;52.272;9.746;2023-04-16T13:45:58;14.70;83.20
16517;DHT22;8371;52.272;9.746;2023-04-16T13:48:25;14.80;83.00
16517;DHT22;8371;52.272;9.746;2023-04-16T13:50:51;15.00;82.90
16517;DHT22;8371;52.272;9.746;2023-04-16T13:53:17;15.10;82.80
16517;DHT22;8371;52.272;9.746;2023-04-16T13:55:43;15.30;82.50
16517;DHT22;8371;52.272;9.746;2023-04-16T13:58:08;15.40;82.00
16517;DHT22;8371;52.272;9.746;2023-04-16T14:00:36;15.50;81.80
16517;DHT22;8371;52.272;9.746;2023-04-16T14:03:02;15.60;82.60
16517;DHT22;8371;52.272;9.746;2023-04-16T14:05:29;15.80;81.60
16517;DHT22;8371;52.272;9.746;2023-04-16T14:07:55;15.90;81.90
16517;DHT22;8371;52.272;9.746;2023-04-16T14:10:21;16.10;81.70
16517;DHT22;8371;52.272;9.746;2023-04-16T14:12:46;16.20;81.70
16517;DHT22;8371;52.272;9.746;2023-04-16T14:15:12;16.40;81.70
16517;DHT22;8371;52.272;9.746;2023-04-16T14:17:40;16.60;81.10
16517;DHT22;8371;52.272;9.746;2023-04-16T14:20:08;16.90;81.90
16517;DHT22;8371;52.272;9.746;2023-04-16T14:22:33;17.20;82.00
16517;DHT22;8371;52.272;9.746;2023-04-16T14:24:59;17.50;81.60
16517;DHT22;8371;52.272;9.746;2023-04-16T14:27:25;17.70;81.30
16517;DHT22;8371;52.272;9.746;2023-04-16T14:29:51;18.00;80.80
16517;DHT22;8371;52.272;9.746;2023-04-16T14:32:17;18.20;80.20
16517;DHT22;8371;52.272;9.746;2023-04-16T14:34:43;18.40;79.50
16517;DHT22;8371;52.272;9.746;2023-04-16T14:37:08;18.50;78.60
16517;DHT22;8371;52.272;9.746;2023-04-16T14:39:34;18.60;78.60
16517;DHT22;8371;52.272;9.746;2023-04-16T14:42:01;18.70;77.10
16517;DHT22;8371;52.272;9.746;2023-04-16T14:44:27;18.70;76.40
16517;DHT22;8371;52.272;9.746;2023-04-16T14:46:53;18.70;76.20
16517;DHT22;8371;52.272;9.746;2023-04-16T14:49:19;18.60;75.70
16517;DHT22;8371;52.272;9.746;2023-04-16T14:51:45;18.50;75.50
16517;DHT22;8371;52.272;9.746;2023-04-16T14:54:11;18.50;75.40
16517;DHT22;8371;52.272;9.746;2023-04-16T14:56:37;18.40;75.30
16517;DHT22;8371;52.272;9.746;2023-04-16T14:59:02;18.30;75.10
16517;DHT22;8371;52.272;9.746;2023-04-16T15:01:28;18.30;75.10
16517;DHT22;8371;52.272;9.746;2023-04-16T15:03:54;18.20;74.70
16517;DHT22;8371;52.272;9.746;2023-04-16T15:06:21;18.00;73.90
16517;DHT22;8371;52.272;9.746;2023-04-16T15:08:46;17.80;73.00
16517;DHT22;8371;52.272;9.746;2023-04-16T15:11:12;17.70;73.20
16517;DHT22;8371;52.272;9.746;2023-04-16T15:13:38;17.50;73.80
16517;DHT22;8371;52.272;9.746;2023-04-16T15:16:04;17.40;74.50
16517;DHT22;8371;52.272;9.746;2023-04-16T15:18:31;17.30;74.50
16517;DHT22;8371;52.272;9.746;2023-04-16T15:20:58;17.20;74.10
16517;DHT22;8371;52.272;9.746;2023-04-16T15:23:23;17.10;73.60
16517;DHT22;8371;52.272;9.746;2023-04-16T15:25:49;17.00;73.80
16517;DHT22;8371;52.272;9.746;2023-04-16T15:28:15;16.90;74.00
16517;DHT22;8371;52.272;9.746;2023-04-16T15:30:40;16.80;74.10
16517;DHT22;8371;52.272;9.746;2023-04-16T15:33:07;16.70;73.80
16517;DHT22;8371;52.272;9.746;2023-04-16T15:35:36;16.60;73.40
16517;DHT22;8371;52.272;9.746;2023-04-16T15:38:03;16.50;73.50
16517;DHT22;8371;52.272;9.746;2023-04-16T15:40:29;16.40;73.20
16517;DHT22;8371;52.272;9.746;2023-04-16T15:42:55;16.30;73.50
16517;DHT22;8371;52.272;9.746;2023-04-16T15:45:23;16.20;73.50